AAR3541 WARR-WSSS
Flight info
| Callsign | AAR3541 |
|---|---|
| Flight time | N/A |
| Altitude | 36000 |
| Route | RAMPY2G RAMPY M635 SURGA T23 UGEBO UGEBO1A |
| Aircraft | B744/H-SDE1E2E3FGHIJ3J5M1P1RWXYZ/LB1D1 |
Departure
| Time | 2026-04-30 22:45 |
|---|---|
| Airport | Juanda International Airport (WARR) |
Arrival
| Time | N/A |
|---|---|
| Airport | Singapore Changi Airport (WSSS) |
| Time | Latitude | Longitude | Altitude | Speed | Heading |
|---|---|---|---|---|---|
| 2026-04-30 22:30 | -7.38252 | 112.78021 | 25 ft | 0 kts | 279° |
| 2026-04-30 22:39 | -7.38233 | 112.77954 | 25 ft | 13 kts | 317° |
| 2026-04-30 22:39 | -7.38061 | 112.78050 | 25 ft | 14 kts | 102° |
| 2026-04-30 22:40 | -7.38144 | 112.78528 | 25 ft | 31 kts | 93° |
| 2026-04-30 22:41 | -7.38235 | 112.79104 | 25 ft | 23 kts | 99° |
| 2026-04-30 22:41 | -7.38284 | 112.79397 | 25 ft | 20 kts | 99° |
| 2026-04-30 22:42 | -7.38365 | 112.79888 | 25 ft | 16 kts | 99° |
| 2026-04-30 22:43 | -7.38317 | 112.80050 | 25 ft | 14 kts | 353° |
| 2026-04-30 22:43 | -7.38197 | 112.79985 | 25 ft | 5 kts | 294° |
| 2026-04-30 22:44 | -7.38139 | 112.79640 | 25 ft | 87 kts | 279° |
| 2026-04-30 22:45 | -7.37482 | 112.75733 | 3065 ft | 149 kts | 280° |
| 2026-04-30 22:45 | -7.36668 | 112.73401 | 4019 ft | 215 kts | 310° |
| 2026-04-30 22:46 | -7.33523 | 112.72534 | 4905 ft | 264 kts | 10° |
| 2026-04-30 22:47 | -7.27933 | 112.77316 | 8278 ft | 279 kts | 48° |
| 2026-04-30 22:47 | -7.25241 | 112.80304 | 10045 ft | 296 kts | 48° |
| 2026-04-30 22:48 | -7.22251 | 112.83607 | 11091 ft | 354 kts | 48° |
| 2026-04-30 22:49 | -7.15869 | 112.88302 | 13821 ft | 393 kts | 29° |
| 2026-04-30 22:49 | -7.08326 | 112.92016 | 17360 ft | 411 kts | 28° |
| 2026-04-30 22:50 | -6.97779 | 112.97370 | 21365 ft | 438 kts | 28° |
| 2026-04-30 22:51 | -6.92266 | 113.00179 | 23138 ft | 451 kts | 28° |
| 2026-04-30 22:51 | -6.86598 | 113.03069 | 24766 ft | 463 kts | 28° |
| 2026-04-30 22:52 | -6.83706 | 113.04543 | 25529 ft | 469 kts | 28° |
| 2026-04-30 22:52 | -6.77809 | 113.07555 | 27009 ft | 481 kts | 28° |
| 2026-04-30 22:53 | -6.71767 | 113.10653 | 28368 ft | 493 kts | 28° |
| 2026-04-30 22:53 | -6.65595 | 113.13818 | 29573 ft | 502 kts | 28° |
| 2026-04-30 22:53 | -6.62486 | 113.15413 | 30365 ft | 501 kts | 28° |
| 2026-04-30 22:54 | -6.56306 | 113.18580 | 32063 ft | 497 kts | 27° |
| 2026-04-30 22:55 | -6.47136 | 113.23286 | 34206 ft | 494 kts | 27° |
| 2026-04-30 22:55 | -6.41031 | 113.26415 | 35451 ft | 492 kts | 27° |
| 2026-04-30 22:56 | -6.34936 | 113.29535 | 35872 ft | 491 kts | 27° |
| 2026-04-30 22:56 | -6.24991 | 113.30305 | 35883 ft | 491 kts | 342° |
| 2026-04-30 22:57 | -6.19204 | 113.26728 | 35886 ft | 492 kts | 318° |
| 2026-04-30 22:58 | -6.10583 | 113.16094 | 35885 ft | 492 kts | 306° |
| 2026-04-30 22:59 | -5.98183 | 112.99697 | 35905 ft | 493 kts | 308° |